createdAt,value
2022-08-05T00:01:56.725Z,23.35
2022-08-05T00:06:03.301Z,23.30
2022-08-05T00:08:34.879Z,23.25
2022-08-05T00:11:48.251Z,23.23
2022-08-05T00:14:51.985Z,23.17
2022-08-05T00:17:54.503Z,23.09
2022-08-05T00:20:57.299Z,23.22
2022-08-05T00:24:10.691Z,23.12
2022-08-05T00:27:16.503Z,23.06
2022-08-05T00:30:19.388Z,23.00
2022-08-05T00:34:56.203Z,22.97
2022-08-05T00:37:12.653Z,22.85
2022-08-05T00:40:27.484Z,22.82
2022-08-05T00:43:41.642Z,22.76
2022-08-05T00:46:53.958Z,22.77
2022-08-05T00:50:04.274Z,22.65
2022-08-05T00:53:09.899Z,22.61
2022-08-05T00:56:30.395Z,22.55
2022-08-05T00:59:34.580Z,22.53
2022-08-05T01:02:47.203Z,22.49
2022-08-05T01:05:54.549Z,22.42
2022-08-05T01:08:57.412Z,22.24
2022-08-05T01:12:09.463Z,22.09
2022-08-05T01:15:36.241Z,22.02
2022-08-05T01:18:48.153Z,21.96
2022-08-05T01:22:24.229Z,21.94
2022-08-05T01:25:57.238Z,21.93
2022-08-05T01:29:08.728Z,21.78
2022-08-05T01:32:18.577Z,21.77
2022-08-05T01:35:50.607Z,21.61
2022-08-05T01:38:50.877Z,21.62
2022-08-05T01:41:55.300Z,21.58
2022-08-05T01:45:03.149Z,21.55
2022-08-05T01:48:10.431Z,21.40
2022-08-05T01:51:14.827Z,21.37
2022-08-05T01:54:23.602Z,21.45
2022-08-05T01:58:29.946Z,21.56
2022-08-05T02:01:04.317Z,21.54
2022-08-05T02:04:09.025Z,21.42
2022-08-05T02:07:12.852Z,21.34
2022-08-05T02:10:28.852Z,21.26
2022-08-05T02:13:53.225Z,21.21
2022-08-05T02:17:08.271Z,21.19
2022-08-05T02:20:23.399Z,21.22
2022-08-05T02:23:33.791Z,21.22
2022-08-05T02:26:53.891Z,21.17
2022-08-05T02:30:00.983Z,21.12
2022-08-05T02:33:04.874Z,21.00
2022-08-05T02:36:13.380Z,20.99
2022-08-05T02:39:18.457Z,20.88
2022-08-05T02:42:25.830Z,20.83
2022-08-05T02:45:51.631Z,20.81
2022-08-05T02:48:53.851Z,20.77
2022-08-05T02:52:04.031Z,20.73
2022-08-05T02:55:08.680Z,20.68
2022-08-05T02:58:15.954Z,20.69
2022-08-05T03:01:23.396Z,20.60
2022-08-05T03:04:28.644Z,20.56
2022-08-05T03:08:00.175Z,20.59
2022-08-05T03:11:53.469Z,20.57
2022-08-05T03:14:16.877Z,20.47
2022-08-05T03:17:20.174Z,20.49
2022-08-05T03:20:24.807Z,20.38
2022-08-05T03:23:27.671Z,20.52
2022-08-05T03:26:32.705Z,20.49
2022-08-05T03:29:45.357Z,20.41
2022-08-05T03:32:58.634Z,20.46
2022-08-05T03:36:01.511Z,20.49
2022-08-05T03:39:19.909Z,20.51
2022-08-05T03:42:32.138Z,20.51
2022-08-05T03:45:58.137Z,20.43
2022-08-05T03:48:58.526Z,20.48
2022-08-05T03:52:36.872Z,20.58
2022-08-05T03:56:10.874Z,20.54
2022-08-05T03:59:02.758Z,20.57
2022-08-05T04:02:06.430Z,20.63
2022-08-05T04:05:10.502Z,20.64
2022-08-05T04:08:29.674Z,20.76
2022-08-05T04:11:47.547Z,20.85
2022-08-05T04:14:54.362Z,20.91
2022-08-05T04:18:09.376Z,20.97
2022-08-05T04:21:12.736Z,21.00
2022-08-05T04:24:35.144Z,21.14
2022-08-05T04:27:43.467Z,21.28
2022-08-05T04:30:48.102Z,21.45
2022-08-05T04:34:18.609Z,21.83
2022-08-05T04:37:12.879Z,23.04
2022-08-05T04:40:15.050Z,25.49
2022-08-05T04:43:22.247Z,27.81
2022-08-05T04:46:28.226Z,29.81
2022-08-05T04:49:39.196Z,31.35
2022-08-05T04:52:53.228Z,32.87
2022-08-05T04:56:15.367Z,34.15
2022-08-05T04:59:24.131Z,35.11
2022-08-05T05:02:41.734Z,36.32
2022-08-05T05:06:39.233Z,37.24
2022-08-05T05:09:07.894Z,37.66
2022-08-05T05:12:10.221Z,38.04
2022-08-05T05:15:17.471Z,39.16
2022-08-05T05:18:36.588Z,39.89
2022-08-05T05:21:39.030Z,40.28
2022-08-05T05:24:58.937Z,40.36
2022-08-05T05:28:02.544Z,40.47
2022-08-05T05:31:05.789Z,41.00
2022-08-05T05:34:11.378Z,41.43
2022-08-05T05:37:15.070Z,42.11
2022-08-05T05:40:20.159Z,42.62
2022-08-05T05:43:54.613Z,42.60
2022-08-05T05:46:45.478Z,42.53
2022-08-05T05:49:56.956Z,43.19
2022-08-05T05:53:20.775Z,43.24
2022-08-05T05:56:25.936Z,43.15
2022-08-05T05:59:40.346Z,43.49
2022-08-05T06:02:43.809Z,43.74
2022-08-05T06:05:54.004Z,43.12
2022-08-05T06:08:56.250Z,43.65
2022-08-05T06:12:01.675Z,44.15
2022-08-05T06:15:08.043Z,44.22
2022-08-05T06:18:10.647Z,44.15
2022-08-05T06:21:18.640Z,44.69
2022-08-05T06:24:27.193Z,45.45
2022-08-05T06:28:11.890Z,45.83
2022-08-05T06:30:52.151Z,46.46
2022-08-05T06:34:07.530Z,45.62
2022-08-05T06:37:11.634Z,46.08
2022-08-05T06:40:18.427Z,45.96
2022-08-05T06:43:58.328Z,45.95
2022-08-05T06:46:46.105Z,46.53
2022-08-05T06:50:01.744Z,46.78
2022-08-05T06:53:11.509Z,47.55
2022-08-05T06:56:26.551Z,47.01
2022-08-05T06:59:29.153Z,47.23
2022-08-05T07:02:45.124Z,47.08
2022-08-05T07:05:47.319Z,47.82
2022-08-05T07:08:54.970Z,48.27
2022-08-05T07:12:00.471Z,47.74
2022-08-05T07:15:34.784Z,48.30
2022-08-05T07:18:47.842Z,47.63
2022-08-05T07:22:00.323Z,47.28
2022-08-05T07:25:22.695Z,47.49
2022-08-05T07:28:27.121Z,47.10
2022-08-05T07:31:53.943Z,47.79
2022-08-05T07:34:57.721Z,47.36
2022-08-05T07:38:00.203Z,47.92
2022-08-05T07:42:08.968Z,48.39
2022-08-05T07:44:27.258Z,46.96
2022-08-05T07:47:39.634Z,46.44
2022-08-05T07:50:44.808Z,46.17
2022-08-05T07:53:50.586Z,46.03
2022-08-05T07:57:01.732Z,44.65
2022-08-05T08:00:17.385Z,43.61
2022-08-05T08:03:21.623Z,42.46
2022-08-05T08:06:23.812Z,41.05
2022-08-05T08:09:30.843Z,39.94
2022-08-05T08:12:48.926Z,39.37
2022-08-05T08:16:35.143Z,38.43
2022-08-05T08:20:20.925Z,37.74
2022-08-05T08:22:36.947Z,37.24
2022-08-05T08:26:00.611Z,36.62
2022-08-05T08:29:21.870Z,36.03
2022-08-05T08:32:27.935Z,35.17
2022-08-05T08:35:34.717Z,34.37
2022-08-05T08:38:42.853Z,34.54
2022-08-05T08:41:59.425Z,34.57
2022-08-05T08:45:20.552Z,34.51
2022-08-05T08:49:02.455Z,34.83
2022-08-05T08:52:03.596Z,34.57
2022-08-05T08:55:13.206Z,34.66
2022-08-05T08:58:17.106Z,34.65
2022-08-05T09:01:20.328Z,34.78
2022-08-05T09:04:22.826Z,34.66
2022-08-05T09:07:39.359Z,34.95
2022-08-05T09:10:46.922Z,34.82
2022-08-05T09:14:09.460Z,34.60
2022-08-05T09:17:40.776Z,34.36
2022-08-05T09:20:37.520Z,34.53
2022-08-05T09:23:43.647Z,34.31
2022-08-05T09:26:48.601Z,34.46
2022-08-05T09:29:54.620Z,34.41
2022-08-05T09:33:02.315Z,34.56
2022-08-05T09:36:11.723Z,34.78
2022-08-05T09:39:22.359Z,34.81
2022-08-05T09:42:28.144Z,35.29
2022-08-05T09:46:06.756Z,35.00
2022-08-05T09:49:19.032Z,34.80
2022-08-05T09:52:34.280Z,35.00
2022-08-05T09:55:57.261Z,35.26
2022-08-05T09:59:04.358Z,35.56
2022-08-05T10:02:06.669Z,35.28
2022-08-05T10:05:14.921Z,35.28
2022-08-05T10:08:36.199Z,35.33
2022-08-05T10:11:41.542Z,35.01
2022-08-05T10:14:44.013Z,35.03
2022-08-05T10:18:10.337Z,35.34
2022-08-05T10:21:16.297Z,35.33
2022-08-05T10:24:20.896Z,35.02
2022-08-05T10:28:09.239Z,35.29
2022-08-05T10:32:49.686Z,35.28
2022-08-05T10:34:16.923Z,35.57
2022-08-05T10:37:21.049Z,35.74
2022-08-05T10:40:43.502Z,35.74
2022-08-05T10:43:59.571Z,35.99
2022-08-05T10:47:26.844Z,35.58
2022-08-05T10:50:45.449Z,35.22
2022-08-05T10:53:51.681Z,35.57
2022-08-05T10:56:57.218Z,35.50
2022-08-05T11:00:19.260Z,35.64
2022-08-05T11:03:26.640Z,35.87
2022-08-05T11:06:30.732Z,35.66
2022-08-05T11:09:46.534Z,36.01
2022-08-05T11:12:54.279Z,35.80
2022-08-05T11:16:33.700Z,35.79
2022-08-05T11:20:10.721Z,35.87
2022-08-05T11:24:05.092Z,35.95
2022-08-05T11:27:37.021Z,36.20
2022-08-05T11:30:58.493Z,36.02
2022-08-05T11:34:05.806Z,36.08
2022-08-05T11:38:28.579Z,35.79
2022-08-05T11:41:13.986Z,35.92
2022-08-05T11:44:53.114Z,35.67
2022-08-05T11:47:54.784Z,35.93
2022-08-05T11:50:58.108Z,35.58
2022-08-05T11:54:01.813Z,35.32
2022-08-05T11:57:08.723Z,35.56
2022-08-05T12:00:31.140Z,35.63
2022-08-05T12:03:55.608Z,35.63
2022-08-05T12:07:00.578Z,35.73
2022-08-05T12:10:09.657Z,35.68
2022-08-05T12:13:18.891Z,35.56
2022-08-05T12:16:39.159Z,35.62
2022-08-05T12:20:25.960Z,35.88
2022-08-05T12:23:22.138Z,35.79
2022-08-05T12:26:24.485Z,35.73
2022-08-05T12:29:29.174Z,35.93
2022-08-05T12:32:50.364Z,35.96
2022-08-05T12:35:53.850Z,35.76
2022-08-05T12:38:58.955Z,35.80
2022-08-05T12:42:02.467Z,35.89
2022-08-05T12:45:10.131Z,35.73
2022-08-05T12:48:26.777Z,35.74
2022-08-05T12:52:12.832Z,35.71
2022-08-05T12:55:26.134Z,35.79
2022-08-05T12:58:48.828Z,35.82
2022-08-05T13:02:04.443Z,35.96
2022-08-05T13:05:08.422Z,35.87
2022-08-05T13:08:18.650Z,35.95
2022-08-05T13:11:25.352Z,35.87
2022-08-05T13:15:05.674Z,35.93
2022-08-05T13:18:09.183Z,35.83
2022-08-05T13:21:12.625Z,35.75
2022-08-05T13:24:27.645Z,35.68
2022-08-05T13:27:42.035Z,35.66
2022-08-05T13:30:44.531Z,35.72
2022-08-05T13:34:25.161Z,35.82
2022-08-05T13:37:13.415Z,35.57
2022-08-05T13:40:36.693Z,35.45
2022-08-05T13:43:45.550Z,35.52
2022-08-05T13:47:02.049Z,35.79
2022-08-05T13:50:10.349Z,35.54
2022-08-05T13:53:15.971Z,35.51
2022-08-05T13:56:19.355Z,35.41
2022-08-05T13:59:24.217Z,35.22
2022-08-05T14:02:29.773Z,35.38
2022-08-05T14:06:04.736Z,35.37
2022-08-05T14:08:56.043Z,35.45
2022-08-05T14:12:17.271Z,35.55
2022-08-05T14:16:04.342Z,35.47
2022-08-05T14:18:43.342Z,35.35
2022-08-05T14:22:09.531Z,35.30
2022-08-05T14:25:21.531Z,35.39
2022-08-05T14:28:27.547Z,35.25
2022-08-05T14:32:03.520Z,35.09
2022-08-05T14:34:54.129Z,35.09
2022-08-05T14:37:59.348Z,35.13
2022-08-05T14:41:06.693Z,35.08
2022-08-05T14:44:20.489Z,35.08
2022-08-05T14:48:04.205Z,35.12
2022-08-05T14:50:46.131Z,35.04
2022-08-05T14:54:26.045Z,34.96
2022-08-05T14:57:13.543Z,34.85
2022-08-05T15:00:16.095Z,34.81
2022-08-05T15:03:22.901Z,34.67
2022-08-05T15:06:28.071Z,34.69
2022-08-05T15:09:54.088Z,34.62
2022-08-05T15:13:01.183Z,34.52
2022-08-05T15:16:07.227Z,34.49
2022-08-05T15:19:14.411Z,34.38
2022-08-05T15:22:26.942Z,34.45
2022-08-05T15:25:50.955Z,34.44
2022-08-05T15:28:52.567Z,34.38
2022-08-05T15:31:54.734Z,34.21
2022-08-05T15:34:58.298Z,34.18
2022-08-05T15:38:09.276Z,34.28
2022-08-05T15:41:24.730Z,34.20
2022-08-05T15:44:46.497Z,34.06
2022-08-05T15:47:49.490Z,34.09
2022-08-05T15:50:57.478Z,34.07
2022-08-05T15:54:00.053Z,34.20
2022-08-05T15:57:03.275Z,34.01
2022-08-05T16:00:11.404Z,33.86
2022-08-05T16:03:14.331Z,33.74
2022-08-05T16:06:20.291Z,33.74
2022-08-05T16:09:24.898Z,33.72
2022-08-05T16:12:27.252Z,33.74
2022-08-05T16:15:32.433Z,33.65
2022-08-05T16:18:51.821Z,33.51
2022-08-05T16:22:00.241Z,33.40
2022-08-05T16:25:09.559Z,33.30
2022-08-05T16:28:13.600Z,33.22
2022-08-05T16:31:17.935Z,33.12
2022-08-05T16:34:22.610Z,32.99
2022-08-05T16:38:03.707Z,32.91
2022-08-05T16:40:55.198Z,32.86
2022-08-05T16:43:58.255Z,32.83
2022-08-05T16:47:00.940Z,32.68
2022-08-05T16:50:04.957Z,32.56
2022-08-05T16:53:12.241Z,32.41
2022-08-05T16:56:25.727Z,32.24
2022-08-05T16:59:30.764Z,32.07
2022-08-05T17:02:33.384Z,31.94
2022-08-05T17:05:37.022Z,31.87
2022-08-05T17:08:53.304Z,31.69
2022-08-05T17:12:00.052Z,31.57
2022-08-05T17:15:02.775Z,31.40
2022-08-05T17:18:05.559Z,31.22
2022-08-05T17:21:16.462Z,31.09
2022-08-05T17:24:35.172Z,30.95
2022-08-05T17:27:41.437Z,30.79
2022-08-05T17:30:51.965Z,30.67
2022-08-05T17:33:55.943Z,30.56
2022-08-05T17:37:00.432Z,30.42
2022-08-05T17:40:04.748Z,30.30
2022-08-05T17:43:13.102Z,30.17
2022-08-05T17:46:18.391Z,30.02
2022-08-05T17:49:21.131Z,29.86
2022-08-05T17:52:26.356Z,29.73
2022-08-05T17:55:38.468Z,29.60
2022-08-05T17:58:42.227Z,29.47
2022-08-05T18:01:49.627Z,29.34
2022-08-05T18:04:53.603Z,29.22
2022-08-05T18:07:57.394Z,29.12
2022-08-05T18:11:00.154Z,28.99
2022-08-05T18:14:06.663Z,28.90
2022-08-05T18:18:00.353Z,28.80
2022-08-05T18:20:32.551Z,28.71
2022-08-05T18:23:45.805Z,28.61
2022-08-05T18:26:49.475Z,28.54
2022-08-05T18:29:54.564Z,28.47
2022-08-05T18:33:00.285Z,28.47
2022-08-05T18:36:11.938Z,28.27
2022-08-05T18:39:42.517Z,28.15
2022-08-05T18:42:40.807Z,28.05
2022-08-05T18:45:43.932Z,27.92
2022-08-05T18:48:52.125Z,27.81
2022-08-05T18:52:13.474Z,27.72
2022-08-05T18:55:17.279Z,27.61
2022-08-05T18:58:19.456Z,27.55
2022-08-05T19:01:33.239Z,27.48
2022-08-05T19:05:02.656Z,27.42
2022-08-05T19:08:13.733Z,27.35
2022-08-05T19:11:27.858Z,27.25
2022-08-05T19:14:52.292Z,27.14
2022-08-05T19:18:08.067Z,27.07
2022-08-05T19:21:12.394Z,26.94
2022-08-05T19:24:14.571Z,26.92
2022-08-05T19:27:17.045Z,26.84
2022-08-05T19:30:21.851Z,26.78
2022-08-05T19:33:35.375Z,26.69
2022-08-05T19:36:38.736Z,26.59
2022-08-05T19:39:50.967Z,26.51
2022-08-05T19:43:04.553Z,26.40
2022-08-05T19:46:16.959Z,26.29
2022-08-05T19:49:30.843Z,26.22
2022-08-05T19:52:33.432Z,26.16
2022-08-05T19:56:14.416Z,26.06
2022-08-05T19:58:58.011Z,25.95
2022-08-05T20:02:20.121Z,25.84
2022-08-05T20:05:24.614Z,25.77
2022-08-05T20:08:27.056Z,25.72
2022-08-05T20:11:30.702Z,25.71
2022-08-05T20:14:39.930Z,25.76
2022-08-05T20:17:42.399Z,25.77
2022-08-05T20:20:46.081Z,25.79
2022-08-05T20:23:51.560Z,25.70
2022-08-05T20:26:55.490Z,25.66
2022-08-05T20:29:59.608Z,25.68
2022-08-05T20:33:02.304Z,25.67
2022-08-05T20:36:04.859Z,25.62
2022-08-05T20:39:07.116Z,25.59
2022-08-05T20:42:15.418Z,25.59
2022-08-05T20:45:23.951Z,25.47
2022-08-05T20:48:50.993Z,25.47
2022-08-05T20:51:54.978Z,25.45
2022-08-05T20:55:15.966Z,25.41
2022-08-05T20:58:19.801Z,25.38
2022-08-05T21:01:26.146Z,25.35
2022-08-05T21:04:40.695Z,25.29
2022-08-05T21:07:50.470Z,25.38
2022-08-05T21:10:53.931Z,25.25
2022-08-05T21:13:56.987Z,25.03
2022-08-05T21:16:59.265Z,24.96
2022-08-05T21:20:09.792Z,24.89
2022-08-05T21:23:12.892Z,24.82
2022-08-05T21:26:16.665Z,24.64
2022-08-05T21:29:19.899Z,24.58
2022-08-05T21:32:27.712Z,24.50
2022-08-05T21:35:55.771Z,24.53
2022-08-05T21:38:52.649Z,24.45
2022-08-05T21:42:01.476Z,24.49
2022-08-05T21:45:05.235Z,24.43
2022-08-05T21:48:13.528Z,24.32
2022-08-05T21:51:25.309Z,24.23
2022-08-05T21:54:40.294Z,24.22
2022-08-05T21:57:44.145Z,24.25
2022-08-05T22:00:51.436Z,24.21
2022-08-05T22:03:54.467Z,24.08
2022-08-05T22:06:57.097Z,24.13
2022-08-05T22:09:59.820Z,24.14
2022-08-05T22:14:05.078Z,24.06
2022-08-05T22:16:41.290Z,24.06
2022-08-05T22:20:00.332Z,24.04
2022-08-05T22:23:25.385Z,23.94
2022-08-05T22:27:06.926Z,23.94
2022-08-05T22:30:15.200Z,23.85
2022-08-05T22:33:19.445Z,23.78
2022-08-05T22:36:41.910Z,23.66
2022-08-05T22:39:45.254Z,23.71
2022-08-05T22:42:58.168Z,23.69
2022-08-05T22:46:02.514Z,23.84
2022-08-05T22:49:23.294Z,23.68
2022-08-05T22:52:34.551Z,23.59
2022-08-05T22:55:57.280Z,23.50
2022-08-05T22:59:02.778Z,23.40
2022-08-05T23:02:07.715Z,23.25
2022-08-05T23:05:10.181Z,23.28
2022-08-05T23:08:12.722Z,23.24
2022-08-05T23:11:16.422Z,23.37
2022-08-05T23:14:22.668Z,23.36
2022-08-05T23:17:37.926Z,23.40
2022-08-05T23:20:56.588Z,23.35
2022-08-05T23:24:00.559Z,23.29
2022-08-05T23:27:06.288Z,23.21
2022-08-05T23:30:10.769Z,23.12
2022-08-05T23:33:22.292Z,23.05
2022-08-05T23:36:38.663Z,22.98
2022-08-05T23:39:53.286Z,22.95
2022-08-05T23:42:56.700Z,22.89
2022-08-05T23:45:59.299Z,22.87
2022-08-05T23:49:15.653Z,22.84
2022-08-05T23:52:35.734Z,22.81
2022-08-05T23:55:38.533Z,22.78
2022-08-05T23:58:44.144Z,22.54
